This is the latest recevied weather packets stored in our database for station/object SQ9NFI-4. If no packets are shown the sender has not sent any weather packets the latest 10 day(s).
| Time | Temp. | Humidity | Pressure | Rain* | Wind** | Luminosity | Snow |
|---|---|---|---|---|---|---|---|
| 1778120678 | 15° C | 79% | 1008.1 hPa | 0 mm | - | 0 W/m² | - |
| 1778120378 | 14.44° C | 80% | 1008.1 hPa | 0 mm | - | 0 W/m² | - |
| 1778120078 | 14.44° C | 81% | 1008.1 hPa | 0 mm | - | 0 W/m² | - |
| 1778119778 | 15° C | 81% | 1008.1 hPa | 0 mm | - | 0 W/m² | - |
| 1778119478 | 15° C | 77% | 1008.1 hPa | 0 mm | - | 0 W/m² | - |
| 1778119179 | 15° C | 77% | 1008.1 hPa | 0 mm | - | 0 W/m² | - |
| 1778118878 | 15° C | 76% | 1008.1 hPa | 0 mm | - | 0 W/m² | - |
| 1778118578 | 14.44° C | 77% | 1008.1 hPa | 0 mm | - | 0 W/m² | - |
| 1778118279 | 13.33° C | 83% | 1008.1 hPa | 0 mm | - | 0 W/m² | - |
| 1778117978 | 13.89° C | 81% | 1008.1 hPa | 0 mm | - | 0 W/m² | - |
| 1778117678 | 13.89° C | 80% | 1007.8 hPa | 0 mm | - | 0 W/m² | - |
| 1778117378 | 14.44° C | 80% | 1007.8 hPa | 0 mm | - | 0 W/m² | - |
| 1778117078 | 13.33° C | 84% | 1007.8 hPa | 0 mm | - | 0 W/m² | - |
| 1778116778 | 12.78° C | 87% | 1007.8 hPa | 0 mm | - | 0 W/m² | - |
| 1778116478 | 13.33° C | 88% | 1007.8 hPa | 0 mm | - | 0 W/m² | - |
| 1778116178 | 13.33° C | 87% | 1007.8 hPa | 0 mm | - | 0 W/m² | - |
| 1778115878 | 13.33° C | 84% | 1007.8 hPa | 0 mm | - | 0 W/m² | - |
| 1778115578 | 13.33° C | 85% | 1007.8 hPa | 0 mm | - | 0 W/m² | - |
| 1778115278 | 13.33° C | 83% | 1007.8 hPa | 0 mm | - | 0 W/m² | - |
| 1778114979 | 13.89° C | 81% | 1007.8 hPa | 0 mm | - | 0 W/m² | - |
| 1778114678 | 13.89° C | 85% | 1007.8 hPa | 0 mm | - | 0 W/m² | - |
| 1778114378 | 14.44° C | 81% | 1007.8 hPa | 0 mm | - | 0 W/m² | - |
| 1778114078 | 14.44° C | 80% | 1007.8 hPa | 0 mm | - | 0 W/m² | - |
| 1778113778 | 14.44° C | 83% | 1007.8 hPa | 0 mm | - | 0 W/m² | - |
| 1778113478 | 14.44° C | 81% | 1007.8 hPa | 0 mm | - | 0 W/m² | - |
* Rain latest hour (hover to see other rain measurements)
** Current wind speed in m/s (hover to see current wind gust speed)